Time;durP1;ratioP1;P1;durP2;ratioP2;P2;SDS_P1;SDS_P2;PMS_P1;PMS_P2;Temp;Humidity;BMP_temperature;BMP_pressure;BME280_temperature;BME280_humidity;BME280_pressure;Samples;Min_cycle;Max_cycle;Signal;HPM_P1;HPM_P2
2022/02/26 00:02:00;;;;;;;9.30;3.55;;;4.00;95.30;;;;;;5200612;28;20036;-38
2022/02/26 00:04:38;;;;;;;7.85;2.80;;;4.10;95.40;;;;;;5198537;28;21088;-38
2022/02/26 00:07:11;;;;;;;10.35;3.28;;;4.10;95.60;;;;;;5192199;28;20052;-38
2022/02/26 00:09:43;;;;;;;9.05;3.15;;;5.80;96.00;;;;;;5194549;28;20053;-38
2022/02/26 00:12:16;;;;;;;10.40;3.58;;;6.60;96.00;;;;;;5196088;28;20049;-40
2022/02/26 00:14:48;;;;;;;10.68;3.10;;;4.10;95.40;;;;;;5191534;28;20053;-39
2022/02/26 00:17:20;;;;;;;7.13;2.92;;;4.10;95.50;;;;;;5184532;28;20508;-41
2022/02/26 00:19:53;;;;;;;6.43;3.05;;;3.60;95.00;;;;;;5196044;28;20343;-38
2022/02/26 00:22:25;;;;;;;14.60;5.05;;;4.10;95.30;;;;;;5190250;28;20432;-38
2022/02/26 00:24:58;;;;;;;12.53;4.33;;;4.00;94.80;;;;;;5178841;28;20449;-38
2022/02/26 00:27:31;;;;;;;12.77;3.35;;;4.00;95.40;;;;;;5186013;28;20250;-38
2022/02/26 00:30:05;;;;;;;7.15;2.67;;;4.00;95.50;;;;;;5189506;28;20041;-40
2022/02/26 00:32:37;;;;;;;7.10;2.85;;;4.10;95.30;;;;;;5171275;28;20045;-39
2022/02/26 00:35:11;;;;;;;10.13;3.25;;;;;;;;;;5189443;28;20064;-40
2022/02/26 00:37:43;;;;;;;9.85;3.50;;;4.10;95.00;;;;;;5188465;28;20060;-38
2022/02/26 00:40:15;;;;;;;12.13;3.40;;;4.10;95.50;;;;;;5188351;28;21597;-38
2022/02/26 00:42:50;;;;;;;7.47;3.90;;;4.10;95.10;;;;;;5172927;28;20042;-38
2022/02/26 00:45:23;;;;;;;7.63;3.00;;;4.10;95.40;;;;;;5174567;28;20100;-39
2022/02/26 00:47:56;;;;;;;20.25;4.18;;;4.00;95.30;;;;;;5180680;28;20404;-38
2022/02/26 00:50:28;;;;;;;11.20;3.93;;;4.10;95.10;;;;;;5180446;28;20727;-40
2022/02/26 00:53:00;;;;;;;17.63;4.45;;;4.20;95.30;;;;;;5180311;28;20048;-38
2022/02/26 00:55:33;;;;;;;5.63;3.28;;;3.80;94.70;;;;;;5169319;28;20033;-38
2022/02/26 00:58:06;;;;;;;11.32;4.20;;;3.90;94.80;;;;;;5184736;28;20052;-38
2022/02/26 01:00:38;;;;;;;7.88;3.35;;;2.70;94.50;;;;;;5176414;28;20049;-39
2022/02/26 01:03:11;;;;;;;19.77;4.60;;;3.90;94.80;;;;;;5184583;28;20045;-39
2022/02/26 01:05:44;;;;;;;15.73;4.90;;;6.50;95.70;;;;;;5185483;28;20053;-41
2022/02/26 01:08:16;;;;;;;23.77;7.00;;;4.10;95.20;;;;;;5183374;28;20041;-39
2022/02/26 01:10:49;;;;;;;21.10;6.07;;;3.80;94.90;;;;;;5153412;28;20053;-38
2022/02/26 01:13:21;;;;;;;17.60;5.47;;;3.80;94.70;;;;;;5187288;28;20754;-38
2022/02/26 01:15:53;;;;;;;11.73;3.55;;;3.50;95.50;;;;;;5177073;28;20463;-39
2022/02/26 01:18:26;;;;;;;12.75;3.78;;;5.70;96.30;;;;;;5174741;28;20053;-40
2022/02/26 01:21:01;;;;;;;8.05;4.18;;;1.90;95.20;;;;;;5159197;28;20512;-37
2022/02/26 01:23:33;;;;;;;12.60;4.88;;;3.90;95.30;;;;;;5187338;28;20850;-38
2022/02/26 01:26:06;;;;;;;10.40;4.03;;;3.90;95.10;;;;;;5180945;28;20045;-38
2022/02/26 01:28:39;;;;;;;13.63;4.28;;;3.90;95.00;;;;;;5180787;28;20049;-38
2022/02/26 01:31:12;;;;;;;8.60;4.40;;;5.00;95.40;;;;;;5184676;28;20053;-39
2022/02/26 01:33:45;;;;;;;14.05;4.90;;;2.30;94.70;;;;;;5192352;28;20073;-38
2022/02/26 01:36:17;;;;;;;8.30;4.53;;;3.90;94.80;;;;;;5192842;28;20526;-40
2022/02/26 01:38:50;;;;;;;13.88;4.78;;;2.60;94.70;;;;;;5165673;28;20304;-38
2022/02/26 01:41:23;;;;;;;10.38;4.55;;;3.80;94.90;;;;;;5187196;28;20045;-39
2022/02/26 01:43:56;;;;;;;11.23;4.90;;;4.20;95.30;;;;;;5189154;28;20061;-40
2022/02/26 01:46:28;;;;;;;15.38;5.60;;;3.70;95.30;;;;;;5189283;28;20055;-39
2022/02/26 01:49:01;;;;;;;10.27;4.90;;;6.30;96.10;;;;;;5186031;28;20056;-38
2022/02/26 01:51:34;;;;;;;16.23;5.67;;;6.80;96.50;;;;;;5191354;28;20053;-38
2022/02/26 01:54:06;;;;;;;12.50;6.45;;;3.50;95.40;;;;;;5186337;28;20481;-39
2022/02/26 01:56:40;;;;;;;12.57;5.47;;;3.60;95.50;;;;;;5186828;28;20056;-38
2022/02/26 01:59:13;;;;;;;14.03;5.13;;;3.70;95.90;;;;;;5188193;28;20041;-38
2022/02/26 02:01:45;;;;;;;15.07;6.65;;;3.50;95.60;;;;;;5180336;28;20578;-38
2022/02/26 02:04:18;;;;;;;12.52;5.03;;;4.50;95.70;;;;;;5192083;28;20049;-40
2022/02/26 02:06:51;;;;;;;13.30;5.30;;;2.50;95.70;;;;;;5186781;28;20048;-39
2022/02/26 02:09:25;;;;;;;15.25;6.07;;;4.90;96.30;;;;;;5191769;28;20041;-40
2022/02/26 02:11:59;;;;;;;14.02;5.38;;;1.60;95.40;;;;;;5193481;28;20100;-38
2022/02/26 02:14:31;;;;;;;15.27;4.65;;;4.50;96.50;;;;;;5191930;28;20045;-41
2022/02/26 02:17:05;;;;;;;9.05;4.55;;;;;;;;;;5190335;28;20059;-38
2022/02/26 02:19:37;;;;;;;13.82;5.30;;;3.20;95.10;;;;;;5187980;28;20053;-38
2022/02/26 02:22:10;;;;;;;8.20;4.45;;;2.40;95.60;;;;;;5192109;28;20052;-38
2022/02/26 02:24:42;;;;;;;18.95;4.93;;;3.30;96.50;;;;;;5171830;28;20389;-41
2022/02/26 02:27:18;;;;;;;10.07;4.95;;;2.70;95.80;;;;;;5185439;28;20052;-39
2022/02/26 02:29:52;;;;;;;13.55;4.63;;;3.40;95.70;;;;;;5192911;28;20052;-38
2022/02/26 02:32:25;;;;;;;9.18;4.28;;;;;;;;;;5186141;28;20064;-40
2022/02/26 02:34:58;;;;;;;10.90;4.18;;;;;;;;;;5187883;28;20182;-40
2022/02/26 02:37:30;;;;;;;9.57;4.67;;;3.30;95.10;;;;;;5187307;28;20048;-38
2022/02/26 02:40:04;;;;;;;15.45;5.40;;;5.90;96.30;;;;;;5180673;28;20072;-41
2022/02/26 02:42:37;;;;;;;;;;;3.30;95.10;;;;;;5189787;28;20040;-40
2022/02/26 02:45:10;;;;;;;9.68;4.82;;;6.70;96.50;;;;;;5166128;28;19920;-39
2022/02/26 02:47:42;;;;;;;10.90;4.65;;;3.30;95.30;;;;;;5191288;28;20536;-38
2022/02/26 02:50:16;;;;;;;8.73;3.90;;;4.10;95.40;;;;;;5184129;28;20060;-38
2022/02/26 02:52:48;;;;;;;;;;;3.30;94.90;;;;;;5186041;28;20049;-40
2022/02/26 02:55:21;;;;;;;13.65;4.28;;;5.50;96.10;;;;;;5182051;28;19932;-38
2022/02/26 02:57:55;;;;;;;7.30;3.58;;;3.20;95.10;;;;;;5180670;28;20910;-39
2022/02/26 03:00:30;;;;;;;11.10;3.85;;;3.30;94.90;;;;;;5183642;28;20485;-39
2022/02/26 03:03:05;;;;;;;;;;;3.30;94.90;;;;;;5176846;28;20055;-39
2022/02/26 03:05:38;;;;;;;13.73;3.58;;;;;;;;;;5187828;28;19928;-41
2022/02/26 03:11:19;;;;;;;7.25;4.10;;;3.40;95.40;;;;;;5164670;28;20060;-33
2022/02/26 03:13:52;;;;;;;9.95;4.30;;;;;;;;;;5169388;28;20048;-33
2022/02/26 03:16:24;;;;;;;13.30;4.55;;;5.10;96.10;;;;;;5164822;28;20057;-33
2022/02/26 03:18:57;;;;;;;7.55;4.10;;;6.80;96.00;;;;;;5165864;28;20056;-33
2022/02/26 03:21:30;;;;;;;7.05;4.00;;;2.20;94.90;;;;;;5145911;28;20469;-33
2022/02/26 03:24:02;;;;;;;11.67;3.63;;;1.60;94.50;;;;;;5150496;28;20391;-33
2022/02/26 03:26:37;;;;;;;7.93;3.60;;;3.50;94.60;;;;;;5149329;28;20465;-33
2022/02/26 03:29:10;;;;;;;10.27;3.55;;;4.40;94.60;;;;;;5149073;28;20054;-32
2022/02/26 03:31:43;;;;;;;16.88;3.95;;;3.40;93.90;;;;;;5144894;28;20321;-33
2022/02/26 03:34:16;;;;;;;5.28;3.10;;;3.40;94.10;;;;;;5143164;28;21837;-32
2022/02/26 03:36:51;;;;;;;8.35;3.80;;;3.30;93.80;;;;;;5154187;28;20041;-32
2022/02/26 03:39:24;;;;;;;7.95;3.38;;;4.10;94.30;;;;;;5146262;28;20054;-32
2022/02/26 03:41:58;;;;;;;11.35;3.95;;;3.30;93.80;;;;;;5156514;28;20038;-32
2022/02/26 03:44:32;;;;;;;12.63;3.42;;;3.60;94.20;;;;;;5153020;28;20042;-32
2022/02/26 03:47:06;;;;;;;11.10;3.55;;;2.50;94.00;;;;;;5147099;28;20196;-33
2022/02/26 03:49:39;;;;;;;12.30;3.05;;;2.60;94.50;;;;;;5159591;28;20050;-32
2022/02/26 03:52:12;;;;;;;6.47;3.55;;;3.30;94.20;;;;;;5152956;28;20375;-32
2022/02/26 03:54:46;;;;;;;5.82;3.55;;;3.30;93.90;;;;;;5146668;28;20054;-32
2022/02/26 03:57:18;;;;;;;10.80;2.95;;;2.90;93.70;;;;;;5151990;28;20053;-32
2022/02/26 03:59:51;;;;;;;5.28;2.80;;;4.90;94.40;;;;;;5152283;28;21101;-32
2022/02/26 04:02:23;;;;;;;8.82;3.90;;;4.00;94.10;;;;;;5148980;28;20042;-33
2022/02/26 04:04:56;;;;;;;10.85;3.75;;;4.60;94.50;;;;;;5145809;28;20064;-33
2022/02/26 04:07:28;;;;;;;7.07;3.22;;;4.80;94.60;;;;;;5149628;28;20100;-33
2022/02/26 04:10:01;;;;;;;12.38;3.75;;;3.00;94.10;;;;;;5147012;28;20052;-33
2022/02/26 04:12:34;;;;;;;6.85;3.33;;;6.70;95.00;;;;;;5152171;28;20061;-33
2022/02/26 04:15:07;;;;;;;7.75;3.65;;;7.10;94.50;;;;;;5141435;28;20050;-32
2022/02/26 04:17:39;;;;;;;9.30;3.92;;;3.10;93.70;;;;;;5148086;28;20076;-32
2022/02/26 04:20:12;;;;;;;10.95;4.20;;;1.50;94.10;;;;;;5172161;28;20406;-32
2022/02/26 04:22:44;;;;;;;11.10;4.25;;;2.30;94.30;;;;;;5155025;28;20627;-33
2022/02/26 04:25:17;;;;;;;8.70;3.53;;;1.70;93.70;;;;;;5145262;28;20573;-33
2022/02/26 04:27:50;;;;;;;7.53;3.72;;;;;;;;;;5145021;28;20041;-32
2022/02/26 04:30:23;;;;;;;5.53;3.58;;;3.40;94.90;;;;;;5143914;28;20647;-32
2022/02/26 04:32:56;;;;;;;5.28;3.70;;;;;;;;;;5152946;28;20413;-32
2022/02/26 04:35:28;;;;;;;9.93;4.00;;;3.20;94.10;;;;;;5152128;28;20073;-33
2022/02/26 04:38:02;;;;;;;9.23;3.95;;;3.90;94.90;;;;;;5152365;28;20053;-33
2022/02/26 04:40:35;;;;;;;9.20;3.83;;;;;;;;;;5143172;28;20046;-33
2022/02/26 04:43:07;;;;;;;8.30;4.10;;;4.30;95.90;;;;;;5149557;28;20516;-32
2022/02/26 04:45:39;;;;;;;11.82;3.58;;;6.20;95.90;;;;;;5149321;28;20049;-32
2022/02/26 04:48:12;;;;;;;16.42;4.30;;;;;;;;;;5159098;28;20050;-33
2022/02/26 04:50:45;;;;;;;7.13;4.00;;;;;;;;;;5166094;28;20061;-33
2022/02/26 04:53:18;;;;;;;9.73;4.38;;;4.50;96.20;;;;;;5150602;28;20057;-32
2022/02/26 04:55:50;;;;;;;8.18;4.25;;;;;;;;;;5166877;28;20050;-33
2022/02/26 04:58:23;;;;;;;8.93;3.90;;;5.80;96.40;;;;;;5148723;28;20058;-33
2022/02/26 05:00:55;;;;;;;11.65;3.90;;;5.20;96.10;;;;;;5145768;28;20052;-32
2022/02/26 05:03:28;;;;;;;11.02;4.63;;;;;;;;;;5146638;28;20057;-33
2022/02/26 05:06:01;;;;;;;13.93;4.75;;;4.10;95.90;;;;;;5150288;28;20378;-34
2022/02/26 05:08:33;;;;;;;8.35;4.22;;;6.10;97.00;;;;;;5154830;28;20466;-32
2022/02/26 05:11:06;;;;;;;11.68;4.93;;;2.90;95.90;;;;;;5142386;28;20533;-33
2022/02/26 05:13:38;;;;;;;14.07;4.97;;;5.50;96.30;;;;;;5144327;28;20042;-32
2022/02/26 05:16:11;;;;;;;12.88;4.97;;;5.40;97.10;;;;;;5152166;28;20038;-32
2022/02/26 05:18:43;;;;;;;10.75;4.72;;;3.30;96.10;;;;;;5156104;28;20300;-32
2022/02/26 05:21:16;;;;;;;15.43;5.63;;;6.10;97.50;;;;;;5151684;28;20061;-32
2022/02/26 05:23:49;;;;;;;12.23;5.33;;;3.70;96.90;;;;;;5151314;28;20622;-33
2022/02/26 05:26:22;;;;;;;14.82;5.35;;;4.00;96.50;;;;;;5157171;28;20307;-32
2022/02/26 05:28:54;;;;;;;10.82;5.00;;;1.90;96.70;;;;;;5160729;28;20049;-32
2022/02/26 05:31:27;;;;;;;16.08;7.13;;;4.90;97.50;;;;;;5163661;28;20044;-32
2022/02/26 05:33:59;;;;;;;10.25;5.75;;;2.40;97.10;;;;;;5161330;28;20042;-33
2022/02/26 05:36:32;;;;;;;11.35;5.32;;;;;;;;;;5164016;28;20490;-32
2022/02/26 05:39:05;;;;;;;11.55;5.43;;;6.40;98.30;;;;;;5167216;28;20497;-33
2022/02/26 05:41:39;;;;;;;9.73;5.10;;;4.80;98.00;;;;;;5154049;28;20057;-32
2022/02/26 05:44:11;;;;;;;9.32;5.10;;;1.30;97.30;;;;;;5176646;28;20065;-33
2022/02/26 05:46:44;;;;;;;15.65;5.82;;;;;;;;;;5153642;28;20042;-32
2022/02/26 05:49:18;;;;;;;10.63;6.10;;;4.90;98.90;;;;;;5162646;28;20057;-32
2022/02/26 05:51:51;;;;;;;10.95;5.53;;;;;;;;;;5131078;28;20339;-32
2022/02/26 05:54:24;;;;;;;12.73;5.73;;;4.50;99.60;;;;;;5157428;28;20061;-33
2022/02/26 05:56:56;;;;;;;13.60;6.20;;;3.20;98.70;;;;;;5151913;28;20303;-32
2022/02/26 05:59:29;;;;;;;14.00;5.35;;;4.80;99.90;;;;;;5145521;28;20517;-33
2022/02/26 06:02:01;;;;;;;9.45;5.90;;;4.20;99.90;;;;;;5147470;28;20054;-33
2022/02/26 06:04:34;;;;;;;15.00;5.60;;;3.10;99.10;;;;;;5158266;28;20430;-33
2022/02/26 06:07:13;;;;;;;11.43;5.13;;;;;;;;;;5149303;28;20038;-33
2022/02/26 06:09:46;;;;;;;11.93;5.40;;;;;;;;;;5157823;28;20046;-32
2022/02/26 06:12:18;;;;;;;11.40;6.13;;;5.00;99.30;;;;;;5157192;28;20061;-32
2022/02/26 06:14:51;;;;;;;12.75;5.55;;;;;;;;;;5162741;28;20050;-32
2022/02/26 06:17:25;;;;;;;22.55;7.97;;;;;;;;;;5146765;28;20046;-33
2022/02/26 06:19:58;;;;;;;32.90;12.90;;;;;;;;;;5155991;28;20049;-32
2022/02/26 06:22:31;;;;;;;19.27;8.07;;;;;;;;;;5135696;28;20819;-32
2022/02/26 06:25:04;;;;;;;15.60;6.20;;;3.00;98.20;;;;;;5142818;28;20398;-33
2022/02/26 06:27:42;;;;;;;13.20;6.05;;;1.80;98.30;;;;;;5144698;28;20064;-33
2022/02/26 06:30:15;;;;;;;13.73;7.32;;;5.70;99.10;;;;;;5136371;28;20057;-33
2022/02/26 06:32:48;;;;;;;;;;;3.10;98.20;;;;;;5142217;28;20057;-33
2022/02/26 06:35:20;;;;;;;14.35;5.63;;;;;;;;;;5148605;28;19926;-32
2022/02/26 06:37:54;;;;;;;12.60;5.67;;;;;;;;;;5143881;28;20868;-32
2022/02/26 06:40:26;;;;;;;13.45;6.15;;;4.20;99.50;;;;;;5164540;28;20693;-32
2022/02/26 06:42:59;;;;;;;11.82;5.78;;;;;;;;;;5158808;28;20041;-32
2022/02/26 06:45:33;;;;;;;18.42;5.68;;;;;;;;;;5152329;28;20052;-32
2022/02/26 06:48:06;;;;;;;14.23;5.33;;;;;;;;;;5151038;28;20053;-32
2022/02/26 06:50:39;;;;;;;15.67;6.13;;;;;;;;;;5150669;28;20050;-32
2022/02/26 06:53:11;;;;;;;14.68;5.95;;;;;;;;;;5153048;28;20045;-32
2022/02/26 06:55:44;;;;;;;15.48;6.72;;;;;;;;;;5130223;28;20046;-32
2022/02/26 06:58:17;;;;;;;17.77;6.47;;;;;;;;;;5139643;28;20053;-32
2022/02/26 07:00:50;;;;;;;20.17;6.72;;;;;;;;;;5131825;28;20070;-32
2022/02/26 07:03:23;;;;;;;18.13;6.70;;;;;;;;;;5127244;28;20046;-33
2022/02/26 07:05:56;;;;;;;15.45;7.00;;;;;;;;;;5151620;28;20140;-33
2022/02/26 07:08:29;;;;;;;13.95;5.93;;;;;;;;;;5146219;28;20042;-32
2022/02/26 07:11:02;;;;;;;16.90;5.80;;;;;;;;;;5148515;28;20200;-33
2022/02/26 07:13:35;;;;;;;17.13;6.32;;;;;;;;;;5147285;28;20046;-33
2022/02/26 07:16:08;;;;;;;13.02;5.43;;;;;;;;;;5162581;28;20046;-32
2022/02/26 07:18:43;;;;;;;10.40;5.97;;;;;;;;;;5160729;28;20420;-33
2022/02/26 07:21:16;;;;;;;10.73;5.45;;;;;;;;;;5162183;28;20564;-33
2022/02/26 07:23:48;;;;;;;17.97;6.07;;;;;;;;;;5156552;28;20045;-33
2022/02/26 07:26:21;;;;;;;18.73;6.13;;;;;;;;;;5165165;28;20052;-33
2022/02/26 07:28:54;;;;;;;16.60;6.00;;;;;;;;;;5147376;28;20510;-32
2022/02/26 07:31:27;;;;;;;17.47;6.90;;;;;;;;;;5136737;28;20684;-32
2022/02/26 07:34:00;;;;;;;11.90;5.73;;;;;;;;;;5162359;28;20041;-33
2022/02/26 07:36:33;;;;;;;17.50;6.15;;;;;;;;;;5149648;28;20365;-32
2022/02/26 07:39:06;;;;;;;16.88;5.03;;;;;;;;;;5139470;28;20046;-33
2022/02/26 07:41:38;;;;;;;18.13;6.20;;;;;;;;;;5145118;28;20277;-32
2022/02/26 07:44:12;;;;;;;11.43;4.80;;;;;;;;;;5152896;28;20045;-32
2022/02/26 07:46:46;;;;;;;13.93;5.72;;;;;;;;;;5148793;28;20046;-32
2022/02/26 07:49:19;;;;;;;10.40;5.28;;;;;;;;;;5149935;28;20081;-32
2022/02/26 07:51:52;;;;;;;14.20;5.60;;;;;;;;;;5157056;28;20531;-32
2022/02/26 07:54:25;;;;;;;19.13;5.45;;;;;;;;;;5155005;28;20048;-32
2022/02/26 07:56:57;;;;;;;10.35;4.85;;;2.90;98.40;;;;;;5165962;28;20414;-33
2022/02/26 07:59:30;;;;;;;11.65;5.47;;;;;;;;;;5157646;28;21219;-32
2022/02/26 08:02:03;;;;;;;13.50;5.15;;;;;;;;;;5157595;28;20405;-33
2022/02/26 08:04:37;;;;;;;;;;;3.20;97.70;;;;;;5158982;28;20046;-32
2022/02/26 08:07:12;;;;;;;15.98;6.32;;;;;;;;;;5151662;28;19933;-32
2022/02/26 08:09:44;;;;;;;14.52;5.20;;;6.20;98.60;;;;;;5140919;28;20049;-33
2022/02/26 08:12:17;;;;;;;16.20;5.43;;;3.80;98.70;;;;;;5143861;28;20513;-32
2022/02/26 08:14:51;;;;;;;17.13;5.28;;;;;;;;;;5142717;28;20687;-32
2022/02/26 08:17:23;;;;;;;13.93;5.13;;;3.10;98.30;;;;;;5151595;28;20050;-33
2022/02/26 08:19:56;;;;;;;18.33;7.55;;;;;;;;;;5143851;28;20046;-32
2022/02/26 08:22:28;;;;;;;15.13;4.88;;;3.70;99.80;;;;;;5148369;28;20526;-33
2022/02/26 08:25:02;;;;;;;13.80;4.88;;;5.60;99.90;;;;;;5137265;28;20046;-33
2022/02/26 08:27:34;;;;;;;13.02;5.32;;;2.90;99.70;;;;;;5154272;28;20038;-32
2022/02/26 08:30:10;;;;;;;12.23;5.80;;;4.40;99.90;;;;;;5135462;28;20227;-32
2022/02/26 08:32:43;;;;;;;8.25;4.35;;;5.30;99.90;;;;;;5150021;28;20049;-33
2022/02/26 08:35:16;;;;;;;17.45;4.65;;;;;;;;;;5165611;28;20045;-32
2022/02/26 08:37:49;;;;;;;16.43;5.50;;;3.40;98.90;;;;;;5160078;28;20064;-32
2022/02/26 08:40:22;;;;;;;21.13;5.57;;;;;;;;;;5156959;28;20300;-30
2022/02/26 08:42:54;;;;;;;17.88;6.05;;;5.60;99.30;;;;;;5156687;28;20490;-29
2022/02/26 08:45:27;;;;;;;14.90;5.57;;;6.00;99.20;;;;;;5153200;28;20996;-30
2022/02/26 08:47:59;;;;;;;18.88;5.60;;;5.90;99.10;;;;;;5148426;28;20084;-30
2022/02/26 08:50:32;;;;;;;14.38;5.53;;;4.50;98.50;;;;;;5157555;28;20418;-30
2022/02/26 08:53:05;;;;;;;14.25;4.82;;;5.40;97.60;;;;;;5153182;28;20465;-30
2022/02/26 08:55:38;;;;;;;22.27;6.70;;;;;;;;;;5148311;28;20054;-41
2022/02/26 08:58:11;;;;;;;11.80;4.90;;;1.70;96.60;;;;;;5139664;28;20231;-41
2022/02/26 09:00:44;;;;;;;13.95;5.55;;;3.90;96.40;;;;;;5148180;28;20045;-41
2022/02/26 09:03:17;;;;;;;23.67;8.03;;;4.90;96.70;;;;;;5147283;28;20061;-41
2022/02/26 09:05:51;;;;;;;19.92;6.38;;;5.70;96.00;;;;;;5143927;28;20300;-41
2022/02/26 09:08:23;;;;;;;20.07;6.90;;;;;;;;;;5159253;28;20046;-41
2022/02/26 09:10:56;;;;;;;23.73;11.32;;;3.80;95.50;;;;;;5158683;23;20061;-76
2022/02/26 09:13:28;;;;;;;24.88;8.90;;;4.20;95.40;;;;;;5130865;28;20066;-82
2022/02/26 09:16:04;;;;;;;17.75;7.10;;;6.20;95.40;;;;;;5132245;28;20042;-80
2022/02/26 09:18:37;;;;;;;21.50;6.47;;;;;;;;;;5127775;28;20074;-78
2022/02/26 09:21:09;;;;;;;13.02;5.03;;;3.80;94.00;;;;;;5150323;28;20053;-79
2022/02/26 09:23:42;;;;;;;15.13;5.50;;;4.60;94.20;;;;;;5132187;28;20046;-79
2022/02/26 09:26:14;;;;;;;13.57;5.65;;;5.40;94.00;;;;;;5124532;28;20046;-79
2022/02/26 09:28:47;;;;;;;16.58;4.88;;;6.10;94.20;;;;;;5119427;28;20049;-81
2022/02/26 09:31:20;;;;;;;22.98;7.05;;;3.00;93.30;;;;;;5133691;28;20061;-79
2022/02/26 09:33:53;;;;;;;14.95;6.30;;;;;;;;;;5126553;28;20062;-79
2022/02/26 09:36:25;;;;;;;20.75;6.93;;;6.10;94.20;;;;;;5107878;28;20062;-79
2022/02/26 09:38:58;;;;;;;19.85;6.03;;;3.90;93.00;;;;;;5122894;28;20050;-78
2022/02/26 09:41:31;;;;;;;19.23;5.60;;;6.20;93.60;;;;;;5144408;28;20057;-78
2022/02/26 09:44:04;;;;;;;14.50;5.18;;;;;;;;;;5121700;28;20059;-78
2022/02/26 09:46:37;;;;;;;12.73;6.10;;;4.20;92.40;;;;;;5111614;28;20063;-78
2022/02/26 09:49:10;;;;;;;17.77;6.13;;;;;;;;;;5128724;28;20982;-78
2022/02/26 09:51:44;;;;;;;21.20;6.95;;;4.00;91.20;;;;;;5116008;28;20062;-80
2022/02/26 09:54:17;;;;;;;19.80;7.05;;;5.60;92.20;;;;;;5112460;28;20046;-77
2022/02/26 09:56:49;;;;;;;15.05;6.35;;;5.10;91.80;;;;;;5130682;28;20066;-81
2022/02/26 09:59:22;;;;;;;16.00;5.30;;;4.30;91.70;;;;;;5151232;28;20031;-78
2022/02/26 10:01:57;;;;;;;9.50;5.05;;;4.10;91.00;;;;;;5131259;28;20570;-78
2022/02/26 10:04:30;;;;;;;16.75;5.32;;;5.70;91.70;;;;;;5123770;28;20050;-80
2022/02/26 10:07:10;;;;;;;14.35;6.53;;;5.00;91.30;;;;;;5145778;28;20042;-79
2022/02/26 10:09:45;;;;;;;24.77;6.18;;;4.20;90.20;;;;;;5117257;28;20514;-80
2022/02/26 10:12:23;;;;;;;17.08;5.50;;;4.20;90.40;;;;;;5138018;28;20074;-79
2022/02/26 10:15:03;;;;;;;9.77;4.32;;;5.40;90.70;;;;;;5135413;28;20054;-80
2022/02/26 10:17:38;;;;;;;9.30;3.97;;;4.30;85.80;;;;;;5111643;28;20050;-79
2022/02/26 10:20:16;;;;;;;15.27;4.43;;;6.40;87.80;;;;;;5112322;28;20050;-81
2022/02/26 10:22:56;;;;;;;16.65;4.05;;;6.00;87.80;;;;;;5121662;28;20043;-80
2022/02/26 10:25:30;;;;;;;14.90;3.55;;;6.00;87.20;;;;;;5126257;28;20046;-80
2022/02/26 10:28:03;;;;;;;15.27;6.90;;;;;;;;;;5129553;28;20051;-79
2022/02/26 10:30:40;;;;;;;13.98;3.90;;;4.40;83.20;;;;;;5099821;28;20054;-78
2022/02/26 10:33:13;;;;;;;12.95;3.92;;;;;;;;;;5105886;28;20061;-80
2022/02/26 10:35:54;;;;;;;11.88;3.63;;;3.70;83.40;;;;;;5073014;28;20054;-80
2022/02/26 10:38:28;;;;;;;11.07;3.92;;;4.50;81.60;;;;;;5101710;28;21508;-80
2022/02/26 10:41:07;;;;;;;8.38;3.75;;;4.40;81.80;;;;;;5119224;28;20054;-80
2022/02/26 10:43:49;;;;;;;14.50;2.95;;;4.60;81.20;;;;;;5114462;28;20046;-79
2022/02/26 10:46:30;;;;;;;11.40;2.70;;;5.60;79.90;;;;;;5117952;28;20482;-80
2022/02/26 10:49:09;;;;;;;9.68;2.55;;;4.90;78.30;;;;;;5146545;28;20525;-80
2022/02/26 10:51:44;;;;;;;7.53;2.70;;;6.20;78.00;;;;;;5120807;28;20461;-80
2022/02/26 10:54:23;;;;;;;6.45;2.40;;;4.60;77.50;;;;;;5118203;28;20352;-77
2022/02/26 10:57:02;;;;;;;7.28;2.63;;;4.60;76.00;;;;;;5108680;28;20065;-80
2022/02/26 10:59:38;;;;;;;11.18;3.40;;;4.70;78.10;;;;;;5124991;28;20066;-80
2022/02/26 11:02:16;;;;;;;11.82;3.40;;;5.10;76.30;;;;;;5099906;28;20058;-78
2022/02/26 11:04:50;;;;;;;12.65;2.92;;;5.60;75.70;;;;;;5122808;28;20047;-78
2022/02/26 11:07:23;;;;;;;5.10;2.70;;;5.40;73.50;;;;;;5106604;28;20055;-79
2022/02/26 11:09:58;;;;;;;7.95;2.53;;;5.50;71.80;;;;;;5113003;28;20061;-77
2022/02/26 11:12:31;;;;;;;12.82;3.05;;;;;;;;;;5143992;28;20037;-78
2022/02/26 11:15:04;;;;;;;10.02;2.80;;;3.60;71.40;;;;;;5119274;28;20051;-80
2022/02/26 11:17:37;;;;;;;8.45;2.55;;;4.50;73.60;;;;;;5109003;28;20066;-80
2022/02/26 11:20:15;;;;;;;13.60;3.85;;;5.30;73.70;;;;;;5117188;28;20062;-80
2022/02/26 11:22:49;;;;;;;10.95;2.58;;;;;;;;;;5110905;28;20054;-80
2022/02/26 11:25:23;;;;;;;11.10;2.92;;;2.60;69.80;;;;;;5122896;28;20046;-79
2022/02/26 11:27:55;;;;;;;15.82;2.83;;;5.10;72.70;;;;;;5127153;28;20060;-80
2022/02/26 11:30:34;;;;;;;7.35;2.78;;;5.10;72.70;;;;;;5136448;28;20046;-80
2022/02/26 11:33:07;;;;;;;8.90;3.00;;;5.10;72.90;;;;;;5119830;28;20050;-78
2022/02/26 11:35:54;;;;;;;7.53;2.83;;;6.50;75.60;;;;;;5096884;28;20073;-79
2022/02/26 11:38:27;;;;;;;11.27;3.85;;;;;;;;;;5105344;28;20039;-79
2022/02/26 11:41:25;;;;;;;7.72;3.90;;;4.20;74.20;;;;;;5094603;28;20686;-80
2022/02/26 11:43:59;;;;;;;9.23;2.50;;;4.70;74.00;;;;;;5128082;28;20047;-79
2022/02/26 11:46:39;;;;;;;15.18;3.33;;;4.90;73.40;;;;;;5109808;28;20516;-79
2022/02/26 11:49:27;;;;;;;10.13;3.05;;;6.60;75.30;;;;;;5119826;28;20613;-80
2022/02/26 11:51:59;;;;;;;9.60;2.97;;;7.20;73.30;;;;;;5094695;28;20418;-80
2022/02/26 11:54:32;;;;;;;7.75;2.47;;;;;;;;;;5114375;28;20054;-80
2022/02/26 11:57:09;;;;;;;9.23;2.53;;;6.70;72.60;;;;;;5099862;28;20172;-79
2022/02/26 11:59:49;;;;;;;11.02;2.65;;;5.50;70.30;;;;;;5106646;28;20058;-78
2022/02/26 12:02:26;;;;;;;9.60;4.65;;;4.30;71.70;;;;;;5119008;28;20054;-80
2022/02/26 12:05:00;;;;;;;10.07;3.00;;;5.30;74.00;;;;;;5124765;28;20051;-79
2022/02/26 12:07:42;;;;;;;8.18;3.28;;;7.00;74.20;;;;;;5110297;28;20118;-80
2022/02/26 12:10:15;;;;;;;12.25;3.50;;;6.70;74.70;;;;;;5128974;28;20073;-81
2022/02/26 12:12:49;;;;;;;9.10;3.58;;;6.00;74.40;;;;;;5118003;28;20769;-80
2022/02/26 12:15:27;;;;;;;16.65;3.35;;;4.00;72.70;;;;;;5142827;28;20387;-80
2022/02/26 12:18:13;;;;;;;8.93;2.72;;;5.20;72.70;;;;;;5125741;28;20509;-79
2022/02/26 12:20:59;;;;;;;17.80;3.07;;;6.50;75.40;;;;;;5083973;28;20054;-79
2022/02/26 12:23:33;;;;;;;12.07;2.75;;;6.40;74.00;;;;;;5149196;28;20054;-79
2022/02/26 12:26:08;;;;;;;12.00;2.95;;;4.90;73.80;;;;;;5125171;28;20175;-78
2022/02/26 12:28:41;;;;;;;6.32;2.60;;;;;;;;;;5121719;28;21155;-80
2022/02/26 12:31:13;;;;;;;10.07;3.58;;;;;;;;;;5097796;28;20054;-81
2022/02/26 12:33:48;;;;;;;10.50;2.90;;;;;;;;;;5093597;28;21757;-79
2022/02/26 12:36:20;;;;;;;10.38;2.63;;;6.20;74.60;;;;;;5102579;28;20742;-78
2022/02/26 12:38:59;;;;;;;7.40;2.78;;;2.70;72.30;;;;;;5106777;28;21021;-80
2022/02/26 12:41:36;;;;;;;11.18;3.28;;;7.20;74.80;;;;;;5096084;28;20589;-78
2022/02/26 12:44:11;;;;;;;7.05;2.15;;;4.80;73.50;;;;;;5122431;28;20057;-80
2022/02/26 12:46:44;;;;;;;9.82;2.40;;;5.00;72.80;;;;;;5126160;28;20042;-78
2022/02/26 12:49:17;;;;;;;6.88;2.33;;;;;;;;;;5090676;28;20054;-80
2022/02/26 12:51:54;;;;;;;13.23;3.03;;;5.40;72.60;;;;;;5141985;28;20055;-81
2022/02/26 12:54:36;;;;;;;6.57;2.70;;;5.30;70.40;;;;;;5120290;28;20049;-79
2022/02/26 12:57:11;;;;;;;12.57;3.60;;;6.50;69.80;;;;;;5123941;28;20046;-79
2022/02/26 12:59:44;;;;;;;6.75;2.22;;;6.10;69.10;;;;;;5103651;28;20046;-78
2022/02/26 13:02:17;;;;;;;9.32;2.30;;;;;;;;;;5077247;28;21362;-78
2022/02/26 13:05:01;;;;;;;8.73;3.38;;;6.10;69.40;;;;;;5088832;28;20679;-78
2022/02/26 13:07:34;;;;;;;8.13;2.35;;;5.20;68.50;;;;;;5113479;28;20090;-78
2022/02/26 13:10:08;;;;;;;7.78;2.33;;;5.30;67.70;;;;;;5108850;28;20065;-78
2022/02/26 13:12:41;;;;;;;10.80;2.13;;;5.20;66.70;;;;;;5111742;28;20063;-80
2022/02/26 13:15:19;;;;;;;11.90;2.78;;;;;;;;;;5136633;28;20525;-80
2022/02/26 13:17:52;;;;;;;7.85;2.33;;;5.20;65.70;;;;;;5102986;28;21014;-80
2022/02/26 13:20:25;;;;;;;6.72;1.83;;;;;;;;;;5112068;28;20994;-79
2022/02/26 13:23:04;;;;;;;10.75;2.50;;;5.10;65.20;;;;;;5123739;28;20527;-77
2022/02/26 13:25:41;;;;;;;5.30;1.73;;;5.10;65.30;;;;;;5101107;28;20059;-78
2022/02/26 13:28:15;;;;;;;4.13;2.05;;;5.10;65.00;;;;;;5104285;28;20043;-77
2022/02/26 13:30:49;;;;;;;9.43;2.00;;;5.10;65.10;;;;;;5092633;28;20073;-79
2022/02/26 13:33:23;;;;;;;7.90;2.20;;;5.40;66.00;;;;;;5128793;28;20046;-79
2022/02/26 13:35:59;;;;;;;4.95;1.92;;;5.20;65.80;;;;;;5097797;28;20065;-79
2022/02/26 13:38:33;;;;;;;6.53;1.63;;;5.20;65.50;;;;;;5120744;28;20051;-78
2022/02/26 13:41:12;;;;;;;6.88;2.28;;;6.20;65.80;;;;;;5122686;28;20732;-80
2022/02/26 13:43:53;;;;;;;7.82;1.90;;;5.20;64.40;;;;;;5128831;28;20062;-78
2022/02/26 13:46:27;;;;;;;6.18;2.45;;;5.10;64.30;;;;;;5121471;28;20173;-79
2022/02/26 13:49:04;;;;;;;6.90;2.05;;;5.10;65.40;;;;;;5115152;28;20041;-78
2022/02/26 13:51:38;;;;;;;11.95;3.20;;;6.00;68.50;;;;;;5135376;28;20055;-79
2022/02/26 13:54:11;;;;;;;15.68;3.38;;;6.70;68.40;;;;;;5151124;28;20298;-78